createdAt,value
2023-01-25T00:01:08.662Z,19.83
2023-01-25T00:04:11.779Z,21.77
2023-01-25T00:07:14.357Z,14.23
2023-01-25T00:10:18.036Z,25.60
2023-01-25T00:13:20.644Z,19.83
2023-01-25T00:16:24.092Z,13.60
2023-01-25T00:19:26.813Z,14.03
2023-01-25T00:22:30.327Z,20.37
2023-01-25T00:25:32.880Z,14.45
2023-01-25T00:28:36.021Z,9.85
2023-01-25T00:31:47.717Z,18.33
2023-01-25T00:34:51.248Z,18.83
2023-01-25T00:37:54.166Z,9.23
2023-01-25T00:40:58.200Z,14.70
2023-01-25T00:44:00.795Z,15.18
2023-01-25T00:47:05.243Z,17.80
2023-01-25T00:50:10.985Z,16.10
2023-01-25T00:53:19.254Z,15.70
2023-01-25T00:56:22.062Z,17.83
2023-01-25T00:59:25.317Z,20.35
2023-01-25T01:02:30.575Z,17.65
2023-01-25T01:05:34.939Z,13.57
2023-01-25T01:08:42.381Z,21.30
2023-01-25T01:11:45.354Z,22.33
2023-01-25T01:14:48.081Z,23.90
2023-01-25T01:17:50.927Z,20.08
2023-01-25T01:20:55.445Z,25.27
2023-01-25T01:23:58.680Z,19.13
2023-01-25T01:27:01.396Z,23.58
2023-01-25T01:30:05.176Z,20.52
2023-01-25T01:33:10.142Z,14.85
2023-01-25T01:36:18.284Z,20.83
2023-01-25T01:39:20.861Z,19.90
2023-01-25T01:42:23.737Z,18.48
2023-01-25T01:46:05.473Z,26.62
2023-01-25T01:49:28.964Z,21.25
2023-01-25T01:52:36.276Z,22.27
2023-01-25T01:55:39.906Z,30.23
2023-01-25T01:58:43.784Z,22.90
2023-01-25T02:01:46.917Z,27.37
2023-01-25T02:04:50.258Z,23.50
2023-01-25T02:07:55.200Z,15.70
2023-01-25T02:10:59.997Z,11.90
2023-01-25T02:14:03.128Z,26.27
2023-01-25T02:17:05.953Z,29.37
2023-01-25T02:20:31.601Z,19.75
2023-01-25T02:23:54.637Z,22.63
2023-01-25T02:26:57.190Z,21.63
2023-01-25T02:30:00.232Z,23.95
2023-01-25T02:33:03.059Z,24.33
2023-01-25T02:36:08.740Z,27.30
2023-01-25T02:39:20.082Z,20.87
2023-01-25T02:42:23.566Z,22.33
2023-01-25T02:45:29.949Z,25.98
2023-01-25T02:48:32.743Z,16.15
2023-01-25T02:51:38.229Z,20.02
2023-01-25T02:54:41.216Z,15.83
2023-01-25T02:57:44.608Z,28.17
2023-01-25T03:00:49.516Z,9.57
2023-01-25T03:03:53.452Z,23.52
2023-01-25T03:06:56.503Z,18.00
2023-01-25T03:09:59.302Z,24.43
2023-01-25T03:13:02.400Z,28.60
2023-01-25T03:16:07.599Z,10.30
2023-01-25T03:19:11.329Z,28.50
2023-01-25T03:22:14.377Z,26.33
2023-01-25T03:25:17.785Z,26.87
2023-01-25T03:28:24.369Z,20.70
2023-01-25T03:31:27.524Z,16.10
2023-01-25T03:34:30.323Z,18.70
2023-01-25T03:37:34.479Z,17.92
2023-01-25T03:40:38.334Z,18.63
2023-01-25T03:43:41.336Z,18.03
2023-01-25T03:46:44.309Z,17.80
2023-01-25T03:49:47.257Z,21.92
2023-01-25T03:53:07.351Z,17.92
2023-01-25T03:56:21.128Z,13.93
2023-01-25T03:59:24.737Z,11.03
2023-01-25T04:02:28.146Z,16.30
2023-01-25T04:05:31.300Z,24.77
2023-01-25T04:08:34.131Z,14.20
2023-01-25T04:11:37.750Z,16.47
2023-01-25T04:14:44.686Z,17.13
2023-01-25T04:17:48.407Z,13.30
2023-01-25T04:20:56.942Z,10.90
2023-01-25T04:24:00.067Z,13.88
2023-01-25T04:27:04.111Z,21.20
2023-01-25T04:30:08.303Z,14.63
2023-01-25T04:33:12.079Z,16.95
2023-01-25T04:36:15.271Z,18.08
2023-01-25T04:39:19.190Z,16.90
2023-01-25T04:42:22.821Z,14.67
2023-01-25T04:45:26.177Z,18.90
2023-01-25T04:48:30.337Z,14.25
2023-01-25T04:51:34.204Z,11.07
2023-01-25T04:54:37.320Z,10.40
2023-01-25T04:57:40.380Z,13.30
2023-01-25T05:00:43.501Z,13.87
2023-01-25T05:03:46.541Z,8.13
2023-01-25T05:06:50.901Z,13.43
2023-01-25T05:09:53.790Z,10.80
2023-01-25T05:12:57.262Z,14.10
2023-01-25T05:15:59.818Z,13.97
2023-01-25T05:19:02.779Z,19.70
2023-01-25T05:22:07.801Z,20.48
2023-01-25T05:25:32.373Z,13.25
2023-01-25T05:28:35.984Z,19.97
2023-01-25T05:31:40.286Z,21.50
2023-01-25T05:34:43.918Z,18.87
2023-01-25T05:37:47.047Z,20.98
2023-01-25T05:40:50.573Z,23.33
2023-01-25T05:43:53.664Z,22.37
2023-01-25T05:46:59.070Z,16.67
2023-01-25T05:50:02.335Z,16.55
2023-01-25T05:53:05.591Z,18.23
2023-01-25T05:56:10.723Z,17.12
2023-01-25T05:59:13.962Z,20.00
2023-01-25T06:02:17.417Z,18.83
2023-01-25T06:05:20.619Z,18.73
2023-01-25T06:08:23.799Z,20.10
2023-01-25T06:11:27.265Z,18.37
2023-01-25T06:14:31.593Z,8.17
2023-01-25T06:17:34.724Z,22.20
2023-01-25T06:20:38.414Z,18.85
2023-01-25T06:23:43.011Z,22.45
2023-01-25T06:26:48.870Z,26.12
2023-01-25T06:29:51.899Z,17.87
2023-01-25T06:32:54.641Z,15.73
2023-01-25T06:36:09.872Z,23.95
2023-01-25T06:39:13.211Z,21.05
2023-01-25T06:42:16.262Z,20.95
2023-01-25T06:45:19.047Z,20.07
2023-01-25T06:48:22.179Z,10.37
2023-01-25T06:51:24.913Z,15.98
2023-01-25T06:54:28.092Z,16.70
2023-01-25T06:57:30.784Z,16.60
2023-01-25T07:00:33.618Z,13.97
2023-01-25T07:03:36.335Z,15.33
2023-01-25T07:06:40.277Z,12.27
2023-01-25T07:09:43.411Z,15.93
2023-01-25T07:12:46.735Z,19.65
2023-01-25T07:16:00.231Z,20.27
2023-01-25T07:19:06.979Z,15.43
2023-01-25T07:22:09.686Z,16.05
2023-01-25T07:25:13.013Z,12.85
2023-01-25T07:28:16.870Z,15.98
2023-01-25T07:31:21.119Z,13.13
2023-01-25T07:34:23.927Z,9.33
2023-01-25T07:37:27.879Z,14.48
2023-01-25T07:40:30.858Z,16.83
2023-01-25T07:43:33.974Z,14.85
2023-01-25T07:46:37.527Z,13.43
2023-01-25T07:49:40.866Z,12.10
2023-01-25T07:52:43.440Z,19.87
2023-01-25T07:55:46.450Z,15.05
2023-01-25T07:58:49.781Z,13.25
2023-01-25T08:01:53.872Z,23.90
2023-01-25T08:04:57.325Z,12.10
2023-01-25T08:08:00.101Z,8.88
2023-01-25T08:11:14.206Z,11.45
2023-01-25T08:14:17.064Z,15.02
2023-01-25T08:17:20.052Z,17.17
2023-01-25T08:20:24.229Z,16.97
2023-01-25T08:23:28.446Z,15.90
2023-01-25T08:26:31.401Z,12.75
2023-01-25T08:29:34.834Z,15.50
2023-01-25T08:32:38.250Z,12.23
2023-01-25T08:35:41.364Z,19.50
2023-01-25T08:38:45.428Z,12.02
2023-01-25T08:41:48.428Z,17.10
2023-01-25T08:44:51.096Z,19.27
2023-01-25T08:47:54.550Z,9.00
2023-01-25T08:50:58.711Z,23.87
2023-01-25T08:54:05.902Z,10.35
2023-01-25T08:57:08.802Z,18.70
2023-01-25T09:00:12.707Z,13.62
2023-01-25T09:03:16.172Z,16.93
2023-01-25T09:06:20.416Z,11.13
2023-01-25T09:09:24.998Z,20.52
2023-01-25T09:12:28.413Z,12.65
2023-01-25T09:15:31.141Z,12.63
2023-01-25T09:18:35.772Z,17.80
2023-01-25T09:21:39.406Z,17.27
2023-01-25T09:24:42.481Z,14.90
2023-01-25T09:27:45.149Z,12.55
2023-01-25T09:31:20.554Z,12.27
2023-01-25T09:34:27.170Z,16.13
2023-01-25T09:37:30.477Z,12.57
2023-01-25T09:40:39.491Z,14.23
2023-01-25T09:44:14.633Z,11.12
2023-01-25T09:47:39.827Z,14.02
2023-01-25T09:50:48.962Z,11.53
2023-01-25T09:53:53.668Z,8.67
2023-01-25T09:56:57.028Z,15.70
2023-01-25T10:00:05.630Z,12.77
2023-01-25T10:03:35.355Z,8.48
2023-01-25T10:06:40.773Z,16.50
2023-01-25T10:10:14.332Z,22.27
2023-01-25T10:13:21.393Z,12.13
2023-01-25T10:16:31.937Z,9.75
2023-01-25T10:20:04.560Z,9.38
2023-01-25T10:23:45.722Z,9.47
2023-01-25T10:26:54.993Z,12.40
2023-01-25T10:29:59.030Z,14.13
2023-01-25T10:33:10.823Z,12.00
2023-01-25T10:36:19.026Z,7.68
2023-01-25T10:39:22.363Z,12.87
2023-01-25T10:42:27.086Z,16.10
2023-01-25T10:45:29.684Z,13.25
2023-01-25T10:48:35.910Z,11.25
2023-01-25T10:51:38.693Z,12.82
2023-01-25T10:54:42.069Z,9.00
2023-01-25T10:57:50.273Z,15.67
2023-01-25T11:00:55.574Z,10.60
2023-01-25T11:04:00.442Z,12.45
2023-01-25T11:07:06.259Z,9.15
2023-01-25T11:10:34.570Z,10.00
2023-01-25T11:13:40.967Z,15.33
2023-01-25T11:16:46.927Z,8.82
2023-01-25T11:19:49.861Z,13.32
2023-01-25T11:22:55.654Z,14.02
2023-01-25T11:26:16.128Z,6.50
2023-01-25T11:29:21.653Z,14.47
2023-01-25T11:32:25.696Z,13.15
2023-01-25T11:35:33.617Z,13.13
2023-01-25T11:38:38.313Z,6.82
2023-01-25T11:42:26.107Z,15.53
2023-01-25T11:45:42.222Z,10.00
2023-01-25T11:48:51.302Z,9.05
2023-01-25T11:52:15.685Z,12.60
2023-01-25T11:55:32.170Z,11.60
2023-01-25T11:59:14.370Z,9.73
2023-01-25T12:02:39.468Z,19.03
2023-01-25T12:06:03.959Z,7.93
2023-01-25T12:09:16.262Z,17.02
2023-01-25T12:12:28.016Z,10.40
2023-01-25T12:15:30.557Z,13.13
2023-01-25T12:18:33.575Z,18.97
2023-01-25T12:21:48.338Z,17.73
2023-01-25T12:25:15.908Z,16.73
2023-01-25T12:28:26.727Z,12.30
2023-01-25T12:31:53.601Z,12.07
2023-01-25T12:35:15.602Z,19.10
2023-01-25T12:38:28.888Z,10.02
2023-01-25T12:41:54.239Z,10.98
2023-01-25T12:45:05.434Z,15.05
2023-01-25T12:48:21.650Z,9.43
2023-01-25T12:51:24.802Z,14.57
2023-01-25T12:54:35.071Z,14.50
2023-01-25T12:57:59.985Z,12.80
2023-01-25T13:01:31.953Z,18.83
2023-01-25T13:04:54.083Z,12.10
2023-01-25T13:08:30.810Z,14.53
2023-01-25T13:11:39.209Z,15.35
2023-01-25T13:14:42.139Z,17.58
2023-01-25T13:17:45.445Z,11.00
2023-01-25T13:20:49.793Z,11.43
2023-01-25T13:24:12.792Z,17.03
2023-01-25T13:27:27.017Z,10.77
2023-01-25T13:30:34.801Z,10.82
2023-01-25T13:33:37.623Z,10.02
2023-01-25T13:36:40.383Z,13.73
2023-01-25T13:39:45.195Z,15.73
2023-01-25T13:43:03.820Z,13.68
2023-01-25T13:46:09.400Z,10.75
2023-01-25T13:49:19.594Z,12.30
2023-01-25T13:52:24.617Z,14.77
2023-01-25T13:55:27.940Z,33.53
2023-01-25T13:58:31.805Z,17.02
2023-01-25T14:01:36.193Z,16.85
2023-01-25T14:04:39.536Z,18.15
2023-01-25T14:07:44.007Z,18.50
2023-01-25T14:10:49.970Z,11.33
2023-01-25T14:14:18.946Z,11.45
2023-01-25T14:17:23.798Z,20.85
2023-01-25T14:20:26.822Z,15.02
2023-01-25T14:23:30.676Z,15.27
2023-01-25T14:26:34.630Z,19.33
2023-01-25T14:32:41.873Z,22.77
2023-01-25T14:35:57.385Z,18.73
2023-01-25T14:39:14.571Z,19.10
2023-01-25T14:42:17.880Z,25.90
2023-01-25T14:45:24.066Z,14.80
2023-01-25T14:49:11.801Z,17.10
2023-01-25T14:52:17.852Z,27.40
2023-01-25T14:55:21.154Z,22.80
2023-01-25T14:58:24.666Z,10.60
2023-01-25T15:01:39.895Z,19.45
2023-01-25T15:05:10.969Z,23.92
2023-01-25T15:08:29.218Z,29.08
2023-01-25T15:11:46.292Z,19.83
2023-01-25T15:14:50.839Z,12.63
2023-01-25T15:17:54.248Z,26.00
2023-01-25T15:20:58.880Z,25.00
2023-01-25T15:24:06.697Z,22.05
2023-01-25T15:27:10.731Z,12.30
2023-01-25T15:30:17.296Z,12.13
2023-01-25T15:33:25.210Z,21.40
2023-01-25T15:36:29.133Z,26.60
2023-01-25T15:39:32.796Z,41.67
2023-01-25T15:42:35.483Z,32.63
2023-01-25T15:45:39.028Z,31.70
2023-01-25T15:48:43.388Z,12.27
2023-01-25T15:51:47.316Z,27.55
2023-01-25T15:54:59.929Z,17.83
2023-01-25T15:58:05.197Z,34.00
2023-01-25T16:01:08.170Z,24.73
2023-01-25T16:04:15.294Z,19.30
2023-01-25T16:07:23.613Z,22.55
2023-01-25T16:10:27.994Z,27.30
2023-01-25T16:13:30.586Z,30.10
2023-01-25T16:16:35.005Z,22.90
2023-01-25T16:19:37.986Z,27.67
2023-01-25T16:22:40.900Z,26.37
2023-01-25T16:25:44.467Z,29.17
2023-01-25T16:28:47.521Z,35.77
2023-01-25T16:31:50.799Z,32.87
2023-01-25T16:34:53.719Z,30.98
2023-01-25T16:37:57.148Z,35.50
2023-01-25T16:41:00.112Z,45.72
2023-01-25T16:44:02.922Z,42.97
2023-01-25T16:47:05.985Z,37.70
2023-01-25T16:50:15.070Z,23.23
2023-01-25T16:53:18.570Z,32.85
2023-01-25T16:56:27.152Z,42.13
2023-01-25T16:59:30.828Z,33.97
2023-01-25T17:02:33.616Z,33.60
2023-01-25T17:05:38.381Z,31.15
2023-01-25T17:08:44.494Z,34.38
2023-01-25T17:11:49.425Z,30.15
2023-01-25T17:14:52.150Z,30.07
2023-01-25T17:17:55.241Z,36.87
2023-01-25T17:21:05.357Z,37.10
2023-01-25T17:24:08.873Z,33.75
2023-01-25T17:27:11.679Z,38.10
2023-01-25T17:30:18.569Z,34.20
2023-01-25T17:33:21.411Z,34.30
2023-01-25T17:36:24.452Z,30.67
2023-01-25T17:39:27.364Z,26.15
2023-01-25T17:42:30.766Z,37.45
2023-01-25T17:45:38.601Z,35.37
2023-01-25T17:48:41.827Z,31.93
2023-01-25T17:51:45.627Z,28.95
2023-01-25T17:54:48.754Z,31.42
2023-01-25T17:57:51.569Z,34.95
2023-01-25T18:01:05.168Z,35.93
2023-01-25T18:04:18.022Z,35.07
2023-01-25T18:07:20.803Z,32.83
2023-01-25T18:10:25.177Z,24.50
2023-01-25T18:13:27.745Z,32.72
2023-01-25T18:16:32.146Z,29.50
2023-01-25T18:19:35.070Z,27.50
2023-01-25T18:22:38.175Z,59.08
2023-01-25T18:25:41.054Z,28.33
2023-01-25T18:28:44.574Z,29.33
2023-01-25T18:31:48.678Z,32.50
2023-01-25T18:34:51.619Z,28.60
2023-01-25T18:37:54.441Z,22.92
2023-01-25T18:40:59.335Z,29.10
2023-01-25T18:44:02.131Z,30.05
2023-01-25T18:47:05.480Z,33.20
2023-01-25T18:50:09.350Z,29.73
2023-01-25T18:53:14.222Z,29.42
2023-01-25T18:56:20.564Z,27.77
2023-01-25T18:59:23.991Z,23.90
2023-01-25T19:02:28.672Z,31.27
2023-01-25T19:05:31.753Z,30.47
2023-01-25T19:08:41.397Z,32.42
2023-01-25T19:11:44.610Z,28.83
2023-01-25T19:14:47.456Z,31.52
2023-01-25T19:17:50.497Z,31.30
2023-01-25T19:20:53.803Z,26.23
2023-01-25T19:23:57.715Z,30.30
2023-01-25T19:27:00.861Z,25.12
2023-01-25T19:30:04.657Z,24.02
2023-01-25T19:33:07.855Z,27.87
2023-01-25T19:36:15.628Z,33.17
2023-01-25T19:39:19.113Z,35.63
2023-01-25T19:45:27.471Z,20.42
2023-01-25T19:48:34.683Z,28.57
2023-01-25T19:51:41.430Z,28.23
2023-01-25T19:54:45.630Z,21.05
2023-01-25T19:57:48.517Z,22.25
2023-01-25T20:01:12.692Z,23.83
2023-01-25T20:04:19.906Z,28.93
2023-01-25T20:07:22.495Z,27.27
2023-01-25T20:10:25.577Z,22.33
2023-01-25T20:13:28.939Z,27.08
2023-01-25T20:16:33.408Z,30.30
2023-01-25T20:19:37.298Z,23.07
2023-01-25T20:22:40.500Z,27.93
2023-01-25T20:25:43.301Z,25.52
2023-01-25T20:28:48.421Z,23.85
2023-01-25T20:31:52.038Z,30.92
2023-01-25T20:34:55.009Z,30.40
2023-01-25T20:37:57.876Z,28.03
2023-01-25T20:41:06.317Z,26.58
2023-01-25T20:44:10.285Z,23.35
2023-01-25T20:47:13.365Z,22.50
2023-01-25T20:50:16.654Z,26.67
2023-01-25T20:53:19.641Z,23.30
2023-01-25T20:56:23.528Z,24.00
2023-01-25T20:59:26.767Z,20.70
2023-01-25T21:02:29.577Z,25.02
2023-01-25T21:05:32.582Z,23.70
2023-01-25T21:08:35.286Z,27.63
2023-01-25T21:11:38.467Z,21.08
2023-01-25T21:14:40.955Z,23.20
2023-01-25T21:17:44.128Z,26.87
2023-01-25T21:20:48.745Z,23.73
2023-01-25T21:23:51.927Z,26.33
2023-01-25T21:26:54.846Z,26.23
2023-01-25T21:29:58.209Z,28.33
2023-01-25T21:33:01.115Z,23.90
2023-01-25T21:36:08.532Z,22.13
2023-01-25T21:39:11.253Z,25.50
2023-01-25T21:42:14.452Z,30.23
2023-01-25T21:45:36.226Z,26.62
2023-01-25T21:48:58.213Z,28.05
2023-01-25T21:52:02.575Z,19.10
2023-01-25T21:55:06.237Z,27.10
2023-01-25T21:58:08.911Z,26.98
2023-01-25T22:01:12.452Z,28.27
2023-01-25T22:04:17.223Z,23.38
2023-01-25T22:07:19.742Z,23.43
2023-01-25T22:10:22.674Z,26.33
2023-01-25T22:13:25.246Z,28.23
2023-01-25T22:16:29.453Z,24.05
2023-01-25T22:19:32.318Z,16.65
2023-01-25T22:22:35.551Z,27.27
2023-01-25T22:25:38.157Z,25.40
2023-01-25T22:28:46.458Z,23.33
2023-01-25T22:31:49.349Z,24.17
2023-01-25T22:34:52.273Z,20.15
2023-01-25T22:37:54.933Z,19.17
2023-01-25T22:41:23.573Z,23.23
2023-01-25T22:44:26.087Z,23.40
2023-01-25T22:47:28.910Z,17.60
2023-01-25T22:50:32.509Z,21.30
2023-01-25T22:53:35.424Z,18.77
2023-01-25T22:56:38.372Z,22.20
2023-01-25T22:59:41.322Z,20.30
2023-01-25T23:02:44.006Z,18.75
2023-01-25T23:05:46.861Z,20.75
2023-01-25T23:08:50.025Z,27.70
2023-01-25T23:11:52.827Z,21.13
2023-01-25T23:14:59.107Z,23.80
2023-01-25T23:18:20.639Z,24.05
2023-01-25T23:21:25.778Z,23.58
2023-01-25T23:24:28.795Z,22.83
2023-01-25T23:27:31.291Z,23.63
2023-01-25T23:30:35.179Z,23.45
2023-01-25T23:33:38.328Z,21.77
2023-01-25T23:36:43.694Z,22.85
2023-01-25T23:39:46.585Z,21.87
2023-01-25T23:42:49.563Z,19.63
2023-01-25T23:45:52.126Z,22.37
2023-01-25T23:48:55.338Z,22.75
2023-01-25T23:51:57.838Z,18.92
2023-01-25T23:55:01.529Z,19.50
2023-01-25T23:58:05.859Z,19.90
